Latest Weather Observations for Richmond

IDN60901

Issued at 9:05 pm EST Thursday 28 August 2014 (issued every 10 minutes, with the page automatically refreshed every 10 minutes)

About weather observations | Map of Sydney area stations | Latest observations for Sydney area | Other Formats
Station Details ID: 067105 Name: RICHMOND RAAF Lat: -33.60 Lon: 150.78 Height: 19.0 m
Data from the previous 72 hours. | See also: Recent months at Richmond
Date/Time
EST
Tmp

°C
App
Tmp
°C
Dew
Point
°C
Rel
Hum
%
Delta-T

°C
Wind Press
QNH
hPa
Press
MSL
hPa
Rain
since
9 am
mm
Dir
 
Spd
km/h
Gust
km/h
Spd
kts
Gust
kts
28/09:00pm 11.7 9.3 8.7 82 1.5 SW 11 13 6 7 1028.1 1028.1 0.6
28/08:30pm 12.0 10.4 8.8 81 1.6 SSW 7 9 4 5 1028.0 - 0.6
28/08:00pm 12.4 10.5 9.1 80 1.6 SW 9 11 5 6 1027.9 1027.9 0.6
28/07:30pm 12.7 11.1 8.6 76 2.0 SSW 7 9 4 5 1027.8 - 0.6
28/07:00pm 13.5 11.5 8.6 72 2.4 S 9 11 5 6 1027.6 1027.6 0.6
28/06:30pm 14.4 12.5 9.0 70 2.7 S 9 15 5 8 1027.4 - 0.6
28/06:00pm 14.9 12.3 9.5 70 2.8 S 13 17 7 9 1027.2 1027.2 0.6
28/05:30pm 15.2 12.3 9.6 69 2.9 SSE 15 20 8 11 1026.9 - 0.6
28/05:00pm 15.8 12.0 9.2 65 3.4 SE 19 24 10 13 1026.6 1026.6 0.6
28/04:30pm 16.3 13.0 9.5 64 3.5 SSE 17 24 9 13 1026.2 - 0.6
28/04:00pm 17.1 11.4 8.3 56 4.5 SSE 28 37 15 20 1025.9 1025.9 0.6
28/03:30pm 15.9 12.2 9.3 65 3.4 S 19 26 10 14 1025.8 - 0.6
28/03:00pm 17.2 13.9 9.4 60 4.0 SSE 17 22 9 12 1025.6 1025.6 0.6
28/02:30pm 18.6 13.3 9.7 56 4.7 SSE 28 37 15 20 1025.3 - 0.6
28/02:00pm 18.5 14.8 10.1 58 4.5 SSE 20 30 11 16 1025.2 1025.2 0.6
28/01:30pm 16.3 11.7 9.7 65 3.4 S 24 28 13 15 1025.4 - 0.6
28/01:00pm 16.6 12.1 10.0 65 3.5 SE 24 35 13 19 1025.6 1025.6 0.6
28/12:30pm 16.3 11.9 11.7 74 2.5 ESE 26 33 14 18 1025.8 - 0.6
28/12:00pm 17.9 15.1 11.2 65 3.6 S 17 24 9 13 1025.8 1025.8 0.6
28/11:30am 15.9 13.6 11.9 77 2.2 S 15 22 8 12 1026.6 - 0.6
28/11:00am 16.2 12.8 11.4 73 2.6 S 20 30 11 16 1026.8 1026.8 0.0
28/10:30am 17.9 14.9 12.1 69 3.2 S 19 24 10 13 1027.0 - 0.0
28/10:00am 16.1 13.0 11.5 74 2.5 S 19 30 10 16 1027.2 1027.2 0.0
28/09:30am 14.6 12.0 11.9 84 1.5 SSW 17 24 9 13 1027.2 - 0.0
28/09:00am 13.6 10.9 11.7 88 1.0 SSW 17 24 9 13 1027.2 1027.2 10.6
28/08:30am 12.7 10.5 10.9 89 0.9 S 13 19 7 10 1027.3 - 10.6
28/08:00am 12.6 10.5 11.0 90 0.8 SSW 13 17 7 9 1026.9 1026.9 10.4
28/07:30am 12.1 10.3 11.0 93 0.6 SSW 11 17 6 9 1026.6 - 10.4
28/07:00am 11.6 9.4 10.7 94 0.5 SSW 13 17 7 9 1026.4 1026.4 10.4
28/06:30am 11.7 9.8 10.4 92 0.7 SSW 11 15 6 8 1026.4 - 10.0
28/06:00am 11.3 9.7 10.2 93 0.6 SW 9 13 5 7 1025.9 1025.9 10.0
28/05:30am 11.4 8.2 10.1 92 0.7 S 17 22 9 12 1025.7 - 9.8
28/05:00am 12.1 9.2 9.7 85 1.2 S 15 20 8 11 1025.4 1025.4 8.8
28/04:30am 12.8 9.0 8.9 77 2.0 SSW 19 26 10 14 1024.9 - 8.6
28/04:00am 12.5 9.1 9.0 79 1.7 SSW 17 22 9 12 1024.9 1024.9 8.6
28/03:30am 12.5 8.6 8.8 78 1.8 SSW 19 28 10 15 1025.0 - 8.6
28/03:00am 12.1 9.0 8.9 81 1.6 SSW 15 20 8 11 1025.1 1025.1 8.6
28/02:34am 11.9 8.9 9.1 83 1.4 SSW 15 22 8 12 1025.2 - 8.6
28/02:30am 11.8 9.1 9.0 83 1.4 SSW 13 22 7 12 1025.3 - 8.6
28/02:21am 11.6 8.9 9.0 84 1.3 S 13 20 7 11 1025.4 - 8.6
28/02:00am 12.1 8.6 8.6 79 1.7 SSW 17 24 9 13 1025.3 1025.3 8.0
28/01:30am 12.0 8.3 8.1 77 1.9 SSW 17 22 9 12 1025.5 - 8.0
28/01:00am 11.9 8.2 8.0 77 1.9 SSW 17 22 9 12 1025.8 1025.8 8.0
28/12:30am 11.7 8.0 7.8 77 1.9 SSW 17 20 9 11 1025.9 - 8.0
28/12:00am 11.8 8.5 7.9 77 1.9 SW 15 20 8 11 1025.9 1025.9 8.0
 
Date/Time
EST
Tmp

°C
App
Tmp
°C
Dew
Point
°C
Rel
Hum
%
Delta-T

°C
Wind Press
QNH
hPa
Press
MSL
hPa
Rain
since
9 am
mm
Dir
 
Spd
km/h
Gust
km/h
Spd
kts
Gust
kts
27/11:30pm 12.0 8.3 8.1 77 1.9 SW 17 20 9 11 1026.1 - 8.0
27/11:00pm 11.5 8.6 8.0 79 1.7 SW 13 17 7 9 1026.4 1026.4 8.0
27/10:30pm 11.8 8.9 8.1 78 1.8 SW 13 19 7 10 1026.3 - 8.0
27/10:00pm 12.2 8.5 8.1 76 2.0 SSW 17 22 9 12 1026.4 1026.4 8.0
27/09:30pm 12.0 8.0 8.1 77 1.9 SSW 19 24 10 13 1026.3 - 8.0
27/09:00pm 12.1 8.9 8.4 78 1.8 SSW 15 20 8 11 1026.5 1026.5 8.0
27/08:30pm 12.6 9.5 8.9 78 1.9 SSW 15 20 8 11 1026.5 - 8.0
27/08:00pm 13.0 9.3 9.3 78 1.9 SSW 19 28 10 15 1026.6 1026.6 8.0
27/07:30pm 13.5 9.6 9.6 77 2.0 SSW 20 30 11 16 1026.2 - 8.0
27/07:00pm 13.9 10.8 10.3 79 1.9 S 17 22 9 12 1026.1 1026.1 8.0
27/06:30pm 14.1 10.6 10.3 78 2.0 S 19 26 10 14 1025.8 - 8.0
27/06:00pm 13.9 10.5 10.5 80 1.8 S 19 28 10 15 1025.4 1025.4 8.0
27/05:30pm 14.1 11.2 11.1 82 1.6 S 17 22 9 12 1025.2 - 8.0
27/05:00pm 14.3 11.9 11.3 82 1.6 S 15 24 8 13 1024.9 1024.9 8.0
27/04:30pm 14.2 11.7 11.0 81 1.7 SSW 15 19 8 10 1024.6 - 8.0
27/04:00pm 15.3 11.9 10.7 74 2.4 S 19 26 10 14 1024.4 1024.4 8.0
27/03:30pm 15.0 11.5 11.0 77 2.1 SSE 20 30 11 16 1024.2 - 8.0
27/03:00pm 15.5 13.0 12.4 82 1.7 S 17 24 9 13 1024.1 1024.1 8.0
27/02:30pm 13.8 10.6 11.3 85 1.3 S 19 24 10 13 1024.2 - 8.0
27/02:21pm 13.6 10.1 10.8 83 1.5 S 20 28 11 15 1024.2 - 7.6
27/02:08pm 14.3 8.8 11.8 85 1.3 SE 32 41 17 22 1024.3 - 7.4
27/02:00pm 16.0 12.8 11.8 76 2.3 SSE 20 32 11 17 1024.2 1024.2 7.0
27/01:30pm 16.5 11.1 11.0 70 2.9 SSE 30 44 16 24 1024.0 - 7.0
27/01:00pm 15.7 9.5 11.3 75 2.4 SSE 35 56 19 30 1024.1 1024.1 7.0
27/12:40pm 15.4 9.7 11.2 76 2.2 SSE 32 50 17 27 1024.1 - 7.0
27/12:30pm 16.8 10.9 11.1 69 3.1 SSE 33 43 18 23 1024.2 - 6.8
27/12:29pm 17.4 11.7 11.2 67 3.4 SSE 32 39 17 21 1024.2 - 6.8
27/12:00pm 15.9 15.4 13.9 88 1.1 SE 9 15 5 8 1024.7 1024.7 6.8
27/11:46am 14.8 15.2 13.7 93 0.6 NE 4 9 2 5 1024.9 - 6.8
27/11:30am 14.1 11.7 12.7 91 0.8 ESE 17 26 9 14 1025.3 - 6.8
27/11:24am 14.2 12.6 12.9 92 0.7 SSE 13 26 7 14 1025.7 - 4.4
27/11:09am 14.4 13.2 12.8 90 0.9 SE 11 15 6 8 1025.4 - 3.0
27/11:00am 14.0 12.2 12.2 89 1.0 ESE 13 24 7 13 1025.6 1025.6 2.6
27/10:53am 13.8 10.9 12.2 90 0.9 ESE 19 32 10 17 1025.6 - 2.6
27/10:42am 14.0 12.5 11.9 87 1.1 W 11 15 6 8 1025.6 - 1.8
27/10:31am 13.9 12.9 12.3 90 0.9 - 9 - 5 - 1025.8 - 1.4
27/10:30am 13.8 12.8 12.2 90 0.9 - 9 - 5 - 1025.8 - 1.2
27/10:00am 14.1 11.1 12.5 90 0.9 SSW 20 30 11 16 1026.0 1026.0 0.2
27/09:30am 13.4 10.9 12.3 93 0.6 SSW 17 26 9 14 1025.8 - 0.2
27/09:00am 13.3 10.1 12.0 92 0.7 SSW 20 33 11 18 1026.0 1026.0 38.0
27/08:30am 13.5 10.2 11.7 89 1.0 SSW 20 28 11 15 1025.7 - 37.6
27/08:00am 13.2 10.2 11.9 92 0.7 SSW 19 28 10 15 1025.4 1025.4 37.6
27/07:36am 12.6 10.4 12.0 96 0.3 SSW 15 20 8 11 1025.2 - 37.6
27/07:30am 12.4 10.1 11.8 96 0.3 SSW 15 20 8 11 1025.2 - 37.6
27/07:22am 12.4 9.7 11.8 96 0.3 S 17 24 9 13 1025.2 - 37.6
27/07:00am 12.3 9.9 11.5 95 0.4 SSW 15 20 8 11 1024.8 1024.8 36.2
27/06:30am 12.2 9.4 11.4 95 0.4 SSW 17 22 9 12 1024.6 - 36.2
27/06:00am 12.6 9.3 11.7 94 0.5 SSW 20 30 11 16 1024.3 1024.3 36.2
27/05:30am 12.4 10.1 11.8 96 0.3 SSW 15 24 8 13 1024.3 - 36.2
27/05:00am 12.4 9.7 11.6 95 0.4 SSW 17 24 9 13 1024.2 1024.2 36.2
27/04:30am 12.5 9.8 11.7 95 0.4 SSW 17 22 9 12 1024.1 - 35.2
27/04:00am 12.2 10.2 11.4 95 0.4 SSW 13 17 7 9 1024.1 1024.1 35.0
27/03:30am 12.6 10.2 11.5 93 0.6 S 15 20 8 11 1023.8 - 35.0
27/03:00am 12.5 10.2 11.7 95 0.4 SSW 15 19 8 10 1023.7 1023.7 35.0
27/02:30am 12.6 10.8 12.1 97 0.3 S 13 20 7 11 1024.0 - 35.0
27/02:00am 12.4 10.5 11.9 97 0.3 SSW 13 17 7 9 1023.9 1023.9 34.0
27/01:30am 12.7 11.3 12.1 96 0.3 SSW 11 15 6 8 1024.1 - 34.0
27/01:00am 12.8 10.7 12.5 98 0.2 SW 15 20 8 11 1024.2 1024.2 34.0
27/12:38am 12.9 10.9 12.6 98 0.2 SSW 15 20 8 11 1024.7 - 33.4
27/12:37am 12.9 10.9 12.6 98 0.2 SSW 15 20 8 11 1024.7 - 33.4
27/12:30am 12.8 11.1 12.5 98 0.2 SW 13 17 7 9 1024.8 - 32.8
27/12:17am 12.9 10.9 12.6 98 0.2 SSW 15 19 8 10 1025.0 - 32.0
27/12:07am 12.9 11.2 12.6 98 0.2 SW 13 17 7 9 1025.0 - 30.8
27/12:00am 12.9 12.0 12.6 98 0.2 SSW 9 15 5 8 1025.0 1025.0 30.4
 
Date/Time
EST
Tmp

°C
App
Tmp
°C
Dew
Point
°C
Rel
Hum
%
Delta-T

°C
Wind Press
QNH
hPa
Press
MSL
hPa
Rain
since
9 am
mm
Dir
 
Spd
km/h
Gust
km/h
Spd
kts
Gust
kts
26/11:44pm 12.9 11.5 12.3 96 0.3 SE 11 15 6 8 1025.2 - 28.6
26/11:34pm 12.9 10.7 12.1 95 0.4 S 15 22 8 12 1025.1 - 27.4
26/11:30pm 12.9 10.7 12.1 95 0.4 S 15 22 8 12 1025.0 - 27.4
26/11:17pm 13.1 10.2 12.3 95 0.4 SE 19 24 10 13 1025.0 - 26.0
26/11:07pm 13.3 10.4 12.4 94 0.5 SSE 19 30 10 16 1025.0 - 24.4
26/11:03pm 13.5 11.0 12.4 93 0.6 SSE 17 30 9 16 1025.0 - 24.2
26/11:00pm 13.4 11.0 12.6 95 0.4 SSE 17 28 9 15 1025.0 1025.0 23.6
26/10:30pm 13.1 12.8 12.8 98 0.2 WSW 6 11 3 6 1025.0 - 20.2
26/10:09pm 13.2 13.4 12.9 98 0.2 SW 4 9 2 5 1024.8 - 11.4
26/10:00pm 13.1 12.3 12.8 98 0.2 SSW 9 13 5 7 1024.6 1024.6 9.8
26/09:40pm 13.2 12.0 12.7 97 0.3 SSW 11 15 6 8 1024.6 - 7.4
26/09:30pm 13.2 12.3 12.7 97 0.3 SSW 9 15 5 8 1024.7 - 7.2
26/09:14pm 13.3 11.7 12.7 96 0.3 SSW 13 17 7 9 1024.5 - 6.8
26/09:12pm 13.2 11.6 12.7 97 0.3 SSW 13 17 7 9 1024.4 - 6.8
26/09:00pm 13.3 11.7 12.7 96 0.3 S 13 22 7 12 1024.5 1024.5 6.8
26/08:57pm 13.3 11.7 12.7 96 0.3 S 13 19 7 10 1024.5 - 6.6
26/08:38pm 13.4 11.8 12.8 96 0.3 S 13 19 7 10 1024.5 - 5.0
26/08:30pm 13.4 11.8 12.8 96 0.3 S 13 19 7 10 1024.4 - 5.0
26/08:00pm 13.2 12.3 12.6 96 0.3 S 9 15 5 8 1024.3 1024.3 5.0
26/07:30pm 13.2 11.5 12.4 95 0.4 SSW 13 17 7 9 1024.1 - 5.0
26/07:00pm 13.2 11.6 12.7 97 0.3 SW 13 20 7 11 1023.8 1023.8 5.0
26/06:33pm 13.2 11.6 12.7 97 0.3 SSW 13 19 7 10 1023.7 - 4.4
26/06:30pm 13.2 11.2 12.7 97 0.3 SSW 15 24 8 13 1023.6 - 4.2
26/06:13pm 13.4 10.7 12.8 96 0.3 S 19 26 10 14 1023.6 - 3.0
26/06:00pm 13.7 11.4 12.9 95 0.4 S 17 22 9 12 1023.5 1023.5 2.0
26/05:58pm 13.7 11.4 12.9 95 0.4 S 17 22 9 12 1023.5 - 2.0
26/05:37pm 14.1 11.8 13.1 94 0.6 S 17 24 9 13 1023.4 - 1.4
26/05:30pm 14.4 12.5 13.1 92 0.7 S 15 24 8 13 1023.3 - 0.8
26/05:00pm 14.4 13.1 13.6 95 0.4 SSW 13 19 7 10 1023.0 1023.0 0.8
26/04:30pm 14.2 13.1 13.2 94 0.6 SSW 11 15 6 8 1023.0 - 0.8
26/04:21pm 14.1 13.0 13.1 94 0.6 SSW 11 13 6 7 1022.9 - 0.8
26/04:00pm 14.1 12.6 13.0 93 0.6 S 13 17 7 9 1022.8 1022.8 0.8
26/03:30pm 14.1 12.5 12.7 91 0.8 SSW 13 17 7 9 1022.8 - 0.8
26/03:00pm 14.2 12.7 13.2 94 0.6 SSW 13 19 7 10 1022.9 1022.9 0.8
26/02:43pm 14.0 11.7 12.9 93 0.6 SSW 17 22 9 12 1022.9 - 0.8
26/02:30pm 14.1 11.8 13.0 93 0.6 SSW 17 24 9 13 1022.7 - 0.8
26/02:20pm 13.9 11.6 13.0 94 0.5 SSW 17 22 9 12 1022.7 - 0.8
26/02:04pm 13.5 10.4 12.2 92 0.7 S 20 26 11 14 1023.0 - 0.6
26/02:00pm 13.8 10.8 12.4 91 0.8 S 20 28 11 15 1023.0 1023.0 0.6
26/01:38pm 14.1 12.6 13.1 94 0.6 S 13 17 7 9 1023.2 - 0.6
26/01:30pm 13.8 12.1 12.5 92 0.7 S 13 20 7 11 1023.3 - 0.6
26/01:23pm 13.9 12.2 12.6 92 0.7 S 13 20 7 11 1023.2 - 0.6
26/01:00pm 14.2 12.2 12.8 91 0.8 S 15 20 8 11 1023.2 1023.2 0.6
26/12:30pm 14.1 12.0 12.5 90 0.9 S 15 20 8 11 1023.3 - 0.6
26/12:26pm 14.1 12.0 12.3 89 1.0 S 15 20 8 11 1023.3 - 0.2
26/12:00pm 14.8 12.9 11.8 82 1.6 S 13 19 7 10 1023.6 1023.6 0.2
26/11:30am 14.7 13.7 12.2 85 1.4 WSW 9 15 5 8 1023.5 - 0.2
26/11:15am 14.8 13.7 12.1 84 1.5 SW 9 13 5 7 1023.7 - 0.2
26/11:00am 14.8 14.3 12.1 84 1.5 S 6 11 3 6 1023.8 1023.8 0.2
26/10:41am 14.5 14.0 12.5 88 1.1 S 7 13 4 7 1024.0 - 0.2
26/10:30am 14.0 13.0 12.2 89 1.0 SSE 9 13 5 7 1024.1 - 0.2
26/10:00am 13.0 12.3 11.9 93 0.6 SSE 7 13 4 7 1024.2 1024.2 0.2
26/09:47am 13.3 12.8 12.8 97 0.3 E 7 9 4 5 1024.3 - 0.2
26/09:30am 12.1 11.4 11.3 95 0.4 ESE 6 9 3 5 1024.1 - 0.2
26/09:29am 12.1 11.4 11.3 95 0.4 E 6 9 3 5 1024.1 - 0.2
26/09:19am 12.1 12.2 11.5 96 0.3 ENE 2 7 1 4 1024.0 - 0.0
26/09:12am 12.0 12.1 11.5 97 0.3 ENE 2 6 1 3 1023.9 - 0.0
26/09:00am 11.7 11.8 11.4 98 0.2 E 2 6 1 3 1023.8 1023.8 2.8
26/08:50am 11.2 10.2 10.9 98 0.2 ENE 7 9 4 5 1023.7 - 2.4
26/08:30am 10.9 10.0 10.6 98 0.2 N 6 7 3 4 1023.5 - 2.4
26/08:00am 9.9 9.5 9.6 98 0.1 NNW 2 6 1 3 1023.3 1023.3 2.4
26/07:45am 9.4 8.5 9.1 98 0.1 N 4 7 2 4 1023.2 - 2.4
26/07:30am 9.2 8.2 8.9 98 0.1 N 4 7 2 4 1023.0 - 2.4
26/07:24am 9.3 8.7 9.0 98 0.1 NE 2 7 1 4 1023.0 - 2.4
26/07:00am 8.6 8.2 8.3 98 0.1 CALM 0 0 0 0 1022.7 1022.7 2.4
26/06:49am 8.6 8.2 8.3 98 0.1 CALM 0 0 0 0 1022.6 - 2.4
26/06:48am 8.6 8.2 8.3 98 0.1 CALM 0 0 0 0 1022.6 - 2.4
26/06:30am 8.2 7.7 7.9 98 0.1 CALM 0 0 0 0 1022.3 - 2.4
26/06:19am 8.0 7.5 7.7 98 0.1 CALM 0 0 0 0 1022.2 - 2.4
26/06:15am 8.4 8.0 8.1 98 0.1 CALM 0 0 0 0 1022.1 - 2.4
26/06:00am 8.4 7.6 8.1 98 0.1 ENE 2 7 1 4 1021.9 1021.9 2.4
26/05:47am 8.4 7.2 8.1 98 0.1 NNW 4 9 2 5 1021.9 - 2.4
26/05:46am 8.5 7.3 8.2 98 0.1 NNW 4 7 2 4 1021.9 - 2.4
26/05:30am 8.8 7.1 8.5 98 0.1 NW 7 9 4 5 1021.7 - 2.4
26/05:26am 8.7 7.0 8.4 98 0.1 NW 7 9 4 5 1021.7 - 2.4
26/05:25am 8.7 7.0 8.4 98 0.1 NW 7 9 4 5 1021.7 - 2.4
26/05:24am 8.9 7.3 8.6 98 0.1 NW 7 9 4 5 1021.7 - 2.4
26/05:23am 8.9 7.3 8.6 98 0.1 NW 7 9 4 5 1021.7 - 2.4
26/05:21am 8.9 7.3 8.6 98 0.1 NW 7 9 4 5 1021.7 - 2.4
26/05:20am 8.9 7.3 8.6 98 0.1 NW 7 9 4 5 1021.7 - 2.4
26/05:19am 8.8 7.1 8.5 98 0.1 NW 7 9 4 5 1021.7 - 2.4
26/05:17am 8.9 7.3 8.6 98 0.1 NW 7 9 4 5 1021.6 - 2.4
26/05:16am 8.7 7.0 8.4 98 0.1 NW 7 9 4 5 1021.6 - 2.4
26/05:13am 8.9 7.3 8.6 98 0.1 NNW 7 9 4 5 1021.6 - 2.4
26/05:06am 8.9 7.3 8.6 98 0.1 NW 7 9 4 5 1021.7 - 2.4
26/05:05am 9.0 7.4 8.7 98 0.1 WNW 7 9 4 5 1021.7 - 2.4
26/05:00am 8.8 7.3 8.5 98 0.1 W 6 7 3 4 1021.7 1021.7 2.4
26/04:52am 9.5 8.6 9.2 98 0.1 W 4 6 2 3 1021.7 - 2.4
26/04:35am 8.8 8.1 8.5 98 0.1 W 2 7 1 4 1021.8 - 2.4
26/04:30am 8.8 8.5 8.5 98 0.1 CALM 0 0 0 0 1021.8 - 2.4
26/04:00am 9.1 8.8 8.6 97 0.2 CALM 0 0 0 0 1021.9 1021.9 2.4
26/03:39am 9.3 9.0 8.7 96 0.3 CALM 0 6 0 3 1021.8 - 2.4
26/03:38am 9.5 9.3 9.0 97 0.2 CALM 0 6 0 3 1021.8 - 2.4
26/03:30am 10.4 9.3 10.1 98 0.2 SSE 6 7 3 4 1021.7 - 2.4
26/03:12am 10.1 8.9 9.6 97 0.3 S 6 7 3 4 1021.6 - 2.4
26/03:00am 10.5 9.5 10.2 98 0.2 W 6 6 3 3 1021.6 1021.6 2.4
26/02:53am 10.4 10.1 10.1 98 0.2 W 2 6 1 3 1021.6 - 2.4
26/02:46am 10.5 10.6 10.0 97 0.3 CALM 0 0 0 0 1021.6 - 2.4
26/02:30am 10.6 10.6 9.8 95 0.4 CALM 0 0 0 0 1021.8 - 2.4
26/02:25am 10.9 11.0 10.3 96 0.3 CALM 0 0 0 0 1021.8 - 2.4
26/02:00am 11.7 12.1 11.2 97 0.3 CALM 0 0 0 0 1022.2 1022.2 2.4
26/01:30am 11.6 11.2 11.0 96 0.3 SW 4 7 2 4 1022.4 - 2.4
26/01:00am 11.7 10.4 11.1 96 0.3 W 9 11 5 6 1022.6 1022.6 2.4
26/12:30am 11.8 10.8 11.0 95 0.4 S 7 9 4 5 1022.8 - 2.4
26/12:00am 12.3 11.6 11.4 94 0.5 WSW 6 9 3 5 1022.9 1022.9 2.4
 
Date/Time
EST
Tmp

°C
App
Tmp
°C
Dew
Point
°C
Rel
Hum
%
Delta-T

°C
Wind Press
QNH
hPa
Press
MSL
hPa
Rain
since
9 am
mm
Dir
 
Spd
km/h
Gust
km/h
Spd
kts
Gust
kts
25/11:30pm 12.8 11.6 11.7 93 0.6 WSW 9 11 5 6 1022.9 - 2.4
25/11:00pm 13.0 11.4 11.6 91 0.7 WSW 11 13 6 7 1023.0 1023.0 2.4
25/10:30pm 13.5 11.6 11.7 89 1.0 SW 13 17 7 9 1023.1 - 2.4
25/10:23pm 13.6 11.7 11.8 89 1.0 SW 13 17 7 9 1023.2 - 2.4
25/10:00pm 13.8 11.9 11.7 87 1.1 SW 13 20 7 11 1023.3 1023.3 2.4
25/09:49pm 13.8 13.0 11.8 88 1.1 SW 7 11 4 6 1023.5 - 2.4
25/09:30pm 13.9 12.8 11.9 88 1.1 SW 9 11 5 6 1023.5 - 2.4

Latest Capital City Observations: Canberra | Sydney | Melbourne | Brisbane | Adelaide | Perth | Hobart | Darwin

Other Formats:

Comma delimited format used in spreadsheet applications
http://www.bom.gov.au/fwo/IDN60901/IDN60901.95753.axf

JavaScript Object Notation format (JSON) in row-major order
http://www.bom.gov.au/fwo/IDN60901/IDN60901.95753.json